Time;durP1;ratioP1;P1;durP2;ratioP2;P2;SDS_P1;SDS_P2;PMS_P1;PMS_P2;Temp;Humidity;BMP_temperature;BMP_pressure;BME280_temperature;BME280_humidity;BME280_pressure;Samples;Min_cycle;Max_cycle;Signal;HPM_P1;HPM_P2
2023/07/25 00:00:30;;;;;;;5.40;2.05;;;;;;;;;;4993606;28;20041;-77
2023/07/25 00:02:55;;;;;;;4.20;2.10;;;;;;;;;;4976750;28;20031;-76
2023/07/25 00:05:21;;;;;;;6.57;2.95;;;;;;;;;;4987229;28;20421;-76
2023/07/25 00:07:46;;;;;;;9.98;2.65;;;;;;;;;;4990750;28;20031;-75
2023/07/25 00:10:12;;;;;;;5.25;1.90;;;;;;;;;;4991351;28;20037;-75
2023/07/25 00:12:38;;;;;;;7.93;2.22;;;;;;;;;;4982085;28;20027;-75
2023/07/25 00:15:04;;;;;;;5.50;2.13;;;;;;;;;;4984099;28;20466;-76
2023/07/25 00:17:30;;;;;;;5.72;2.15;;;;;;;;;;4989108;28;20031;-76
2023/07/25 00:19:55;;;;;;;8.48;2.20;;;;;;;;;;4979811;28;20319;-77
2023/07/25 00:22:21;;;;;;;10.13;1.95;;;;;;;;;;4990173;28;20402;-75
2023/07/25 00:24:46;;;;;;;5.45;2.25;;;;;;;;;;4952134;28;20488;-76
2023/07/25 00:27:12;;;;;;;4.22;2.13;;;;;;;;;;4987646;28;20113;-77
2023/07/25 00:29:37;;;;;;;8.65;2.53;;;;;;;;;;4980683;28;20077;-75
2023/07/25 00:32:03;;;;;;;6.13;2.17;;;;;;;;;;4975263;28;20033;-77
2023/07/25 00:34:28;;;;;;;7.40;2.60;;;;;;;;;;4980186;28;20026;-76
2023/07/25 00:36:54;;;;;;;7.70;2.10;;;;;;;;;;4969212;28;20026;-76
2023/07/25 00:39:20;;;;;;;6.85;2.08;;;;;;;;;;4987644;28;20064;-77
2023/07/25 00:41:45;;;;;;;9.45;2.85;;;;;;;;;;4946996;28;20509;-78
2023/07/25 00:44:11;;;;;;;5.80;2.47;;;;;;;;;;4991983;28;20074;-78
2023/07/25 00:46:36;;;;;;;8.50;2.55;;;;;;;;;;4981519;28;20127;-76
2023/07/25 00:49:03;;;;;;;6.43;2.70;;;;;;;;;;4992505;28;20034;-75
2023/07/25 00:51:29;;;;;;;6.30;2.85;;;;;;;;;;5030148;28;20050;-76
2023/07/25 00:53:55;;;;;;;4.82;2.28;;;;;;;;;;5003476;28;20018;-77
2023/07/25 00:56:21;;;;;;;5.57;2.00;;;;;;;;;;5004688;28;20026;-76
2023/07/25 00:58:47;;;;;;;11.52;3.50;;;;;;;;;;5008715;28;20106;-75
2023/07/25 01:01:12;;;;;;;8.85;2.60;;;;;;;;;;4999060;28;20059;-76
2023/07/25 01:03:39;;;;;;;5.28;2.40;;;;;;;;;;4997176;28;20429;-77
2023/07/25 01:06:05;;;;;;;7.28;2.80;;;;;;;;;;4980436;28;20514;-76
2023/07/25 01:08:31;;;;;;;6.28;2.33;;;;;;;;;;4972978;28;20117;-77
2023/07/25 01:10:56;;;;;;;6.70;2.40;;;;;;;;;;4975399;28;20130;-77
2023/07/25 01:13:22;;;;;;;7.65;2.55;;;;;;;;;;4976591;28;20027;-78
2023/07/25 01:15:52;;;;;;;8.65;2.90;;;;;;;;;;4975196;28;20034;-77
2023/07/25 01:18:18;;;;;;;19.17;5.10;;;;;;;;;;4990348;28;20033;-76
2023/07/25 01:20:43;;;;;;;5.38;2.28;;;;;;;;;;4982549;28;20027;-75
2023/07/25 01:23:10;;;;;;;7.55;2.50;;;;;;;;;;4983114;28;20401;-76
2023/07/25 01:25:36;;;;;;;7.65;2.53;;;;;;;;;;4989753;28;20034;-76
2023/07/25 01:28:01;;;;;;;9.43;2.47;;;;;;;;;;4977084;28;20022;-76
2023/07/25 01:30:27;;;;;;;5.43;2.50;;;;;;;;;;4989054;28;20026;-77
2023/07/25 01:32:54;;;;;;;5.68;2.38;;;;;;;;;;4982653;28;20030;-77
2023/07/25 01:35:19;;;;;;;12.00;3.20;;;;;;;;;;4993312;28;20038;-77
2023/07/25 01:37:45;;;;;;;9.65;2.55;;;;;;;;;;4961892;28;20030;-76
2023/07/25 01:40:12;;;;;;;7.75;2.53;;;;;;;;;;4961795;28;20042;-77
2023/07/25 01:42:38;;;;;;;9.25;2.38;;;;;;;;;;4977429;28;20604;-76
2023/07/25 01:45:04;;;;;;;8.18;2.53;;;;;;;;;;4993090;28;20030;-76
2023/07/25 01:47:30;;;;;;;7.25;2.47;;;;;;;;;;4993327;28;20065;-78
2023/07/25 01:49:55;;;;;;;4.88;2.20;;;;;;;;;;4995770;28;20038;-77
2023/07/25 01:52:21;;;;;;;7.40;2.63;;;;;;;;;;4995090;28;20102;-76
2023/07/25 01:54:51;;;;;;;6.40;2.72;;;;;;;;;;4993628;28;20027;-75
2023/07/25 01:57:17;;;;;;;6.72;2.47;;;;;;;;;;4976052;28;20477;-78
2023/07/25 01:59:42;;;;;;;10.45;2.78;;;;;;;;;;4993060;28;20041;-77
2023/07/25 02:02:08;;;;;;;8.07;3.22;;;;;;;;;;4992914;28;20118;-77
2023/07/25 02:04:34;;;;;;;14.30;2.70;;;;;;;;;;4993303;28;20113;-76
2023/07/25 02:06:59;;;;;;;11.43;3.22;;;;;;;;;;4994440;28;20125;-76
2023/07/25 02:09:25;;;;;;;5.38;2.50;;;;;;;;;;4976448;28;20065;-78
2023/07/25 02:11:50;;;;;;;7.90;2.90;;;;;;;;;;4974623;28;20089;-78
2023/07/25 02:14:16;;;;;;;9.82;2.75;;;;;;;;;;4993170;28;20037;-75
2023/07/25 02:16:41;;;;;;;9.93;2.90;;;;;;;;;;4993965;28;20101;-76
2023/07/25 02:19:07;;;;;;;7.68;2.85;;;;;;;;;;4977629;28;20121;-74
2023/07/25 02:21:33;;;;;;;6.70;2.60;;;;;;;;;;4979664;28;20026;-78
2023/07/25 02:23:59;;;;;;;10.15;3.15;;;;;;;;;;4978439;28;20042;-77
2023/07/25 02:26:25;;;;;;;8.20;2.80;;;;;;;;;;4993193;28;20026;-75
2023/07/25 02:28:50;;;;;;;10.68;2.90;;;;;;;;;;4991771;28;20027;-76
2023/07/25 02:31:16;;;;;;;9.02;3.00;;;;;;;;;;4976501;28;20121;-76
2023/07/25 02:33:41;;;;;;;9.75;3.30;;;;;;;;;;4992907;28;20045;-77
2023/07/25 02:36:07;;;;;;;11.68;3.47;;;;;;;;;;4992438;28;20437;-77
2023/07/25 02:38:32;;;;;;;4.90;3.20;;;;;;;;;;4994005;28;20555;-76
2023/07/25 02:40:58;;;;;;;6.75;3.17;;;;;;;;;;4992214;28;20147;-76
2023/07/25 02:43:24;;;;;;;7.40;2.88;;;;;;;;;;4991901;28;20026;-78
2023/07/25 02:45:52;;;;;;;8.43;3.40;;;;;;;;;;4988008;28;20452;-77
2023/07/25 02:48:18;;;;;;;;;;;;;;;;;;4988170;28;20030;-78
2023/07/25 02:50:44;;;;;;;9.27;3.53;;;;;;;;;;4975503;28;20388;-76
2023/07/25 02:53:09;;;;;;;10.10;3.75;;;;;;;;;;4991672;28;20073;-76
2023/07/25 02:55:35;;;;;;;9.25;3.45;;;;;;;;;;4991710;28;20030;-76
2023/07/25 02:58:01;;;;;;;5.50;3.80;;;;;;;;;;4992168;28;20541;-77
2023/07/25 03:00:27;;;;;;;11.90;4.30;;;;;;;;;;4992967;28;20030;-76
2023/07/25 03:02:52;;;;;;;9.73;4.05;;;;;;;;;;4992790;28;20060;-76
2023/07/25 03:05:18;;;;;;;15.45;4.88;;;;;;;;;;4988902;28;20084;-76
2023/07/25 03:07:44;;;;;;;11.98;4.57;;;;;;;;;;4991607;28;20030;-75
2023/07/25 03:10:09;;;;;;;10.05;4.72;;;;;;;;;;4991582;28;20401;-77
2023/07/25 03:12:35;;;;;;;12.50;5.50;;;;;;;;;;4991542;28;20061;-77
2023/07/25 03:15:01;;;;;;;11.40;5.03;;;;;;;;;;4992842;28;20441;-78
2023/07/25 03:17:27;;;;;;;10.95;5.35;;;;;;;;;;4992150;28;20050;-76
2023/07/25 03:19:52;;;;;;;9.32;4.57;;;;;;;;;;4992323;28;20490;-77
2023/07/25 03:22:18;;;;;;;9.52;5.00;;;;;;;;;;4990193;28;20062;-77
2023/07/25 03:24:44;;;;;;;10.07;5.05;;;;;;;;;;4978842;28;20043;-77
2023/07/25 03:27:10;;;;;;;10.77;4.93;;;;;;;;;;4978378;28;20038;-76
2023/07/25 03:29:35;;;;;;;10.93;5.13;;;;;;;;;;5011629;28;20117;-75
2023/07/25 03:32:01;;;;;;;9.38;4.70;;;;;;;;;;5004429;28;20031;-76
2023/07/25 03:34:26;;;;;;;7.40;5.00;;;;;;;;;;4996881;28;20097;-78
2023/07/25 03:36:52;;;;;;;8.02;4.82;;;;;;;;;;4983765;28;20378;-77
2023/07/25 03:39:18;;;;;;;9.43;5.03;;;;;;;;;;4991145;28;20034;-76
2023/07/25 03:41:43;;;;;;;15.07;5.45;;;;;;;;;;4976915;28;20022;-78
2023/07/25 03:44:10;;;;;;;8.63;4.72;;;;;;;;;;4967229;28;20478;-76
2023/07/25 03:46:35;;;;;;;10.32;4.55;;;;;;;;;;4967507;28;20138;-77
2023/07/25 03:49:01;;;;;;;12.45;4.78;;;;;;;;;;4992757;28;20110;-75
2023/07/25 03:51:26;;;;;;;16.23;5.03;;;;;;;;;;4989297;28;20049;-77
2023/07/25 03:53:52;;;;;;;8.80;4.80;;;;;;;;;;4978973;28;20478;-77
2023/07/25 03:56:18;;;;;;;13.80;5.18;;;;;;;;;;4983155;28;20041;-77
2023/07/25 03:58:43;;;;;;;9.55;4.95;;;;;;;;;;4984624;28;20026;-77
2023/07/25 04:01:09;;;;;;;14.57;5.28;;;;;;;;;;4976013;28;20038;-78
2023/07/25 04:03:34;;;;;;;13.60;5.32;;;;;;;;;;4988728;28;20030;-77
2023/07/25 04:06:00;;;;;;;14.35;5.50;;;;;;;;;;4978174;28;20038;-78
2023/07/25 04:08:25;;;;;;;14.48;5.60;;;;;;;;;;4996524;28;20045;-77
2023/07/25 04:10:51;;;;;;;6.30;4.75;;;;;;;;;;4969203;28;20481;-77
2023/07/25 04:13:16;;;;;;;11.20;4.85;;;;;;;;;;4976074;28;20034;-77
2023/07/25 04:15:42;;;;;;;7.43;4.53;;;;;;;;;;5006854;28;20055;-77
2023/07/25 04:18:10;;;;;;;13.25;4.57;;;;;;;;;;4993711;28;20058;-76
2023/07/25 04:20:36;;;;;;;10.00;4.55;;;;;;;;;;4996043;28;20062;-77
2023/07/25 04:23:01;;;;;;;8.20;4.53;;;;;;;;;;5002649;28;20030;-77
2023/07/25 04:25:27;;;;;;;14.27;4.90;;;;;;;;;;4998344;28;20133;-77
2023/07/25 04:27:52;;;;;;;8.65;4.30;;;;;;;;;;4986836;28;20038;-75
2023/07/25 04:30:18;;;;;;;12.35;4.82;;;;;;;;;;4987312;28;20035;-75
2023/07/25 04:32:43;;;;;;;8.10;5.00;;;;;;;;;;4998341;28;20113;-75
2023/07/25 04:35:09;;;;;;;9.95;4.65;;;;;;;;;;4992035;28;20027;-76
2023/07/25 04:37:34;;;;;;;9.40;4.68;;;;;;;;;;5012079;28;20025;-77
2023/07/25 04:40:00;;;;;;;8.23;4.40;;;;;;;;;;4999375;28;20045;-76
2023/07/25 04:42:26;;;;;;;12.52;4.50;;;;;;;;;;4986978;28;20074;-75
2023/07/25 04:44:51;;;;;;;10.40;4.75;;;;;;;;;;4988398;28;20061;-78
2023/07/25 04:47:17;;;;;;;9.13;4.72;;;;;;;;;;4977810;28;20464;-78
2023/07/25 04:49:43;;;;;;;9.73;5.18;;;;;;;;;;4989070;28;20027;-77
2023/07/25 04:52:08;;;;;;;8.88;4.57;;;;;;;;;;4966396;28;20421;-77
2023/07/25 04:54:34;;;;;;;7.70;4.55;;;;;;;;;;4982382;28;20031;-76
2023/07/25 04:56:59;;;;;;;7.93;4.60;;;;;;;;;;4989400;28;20134;-78
2023/07/25 04:59:26;;;;;;;9.60;3.80;;;;;;;;;;4978059;28;20473;-77
2023/07/25 05:01:52;;;;;;;8.20;3.40;;;;;;;;;;4989436;28;20054;-77
2023/07/25 05:04:17;;;;;;;8.75;3.42;;;;;;;;;;4958323;28;20034;-78
2023/07/25 05:06:44;;;;;;;9.73;2.95;;;;;;;;;;4988427;28;20121;-78
2023/07/25 05:09:09;;;;;;;10.45;2.40;;;;;;;;;;4978710;28;20097;-77
2023/07/25 05:11:35;;;;;;;7.57;2.85;;;;;;;;;;4990203;28;20023;-79
2023/07/25 05:14:00;;;;;;;4.63;2.60;;;;;;;;;;4982763;28;20031;-78
2023/07/25 05:16:26;;;;;;;7.28;2.60;;;;;;;;;;4999540;28;20110;-77
2023/07/25 05:18:51;;;;;;;6.20;2.35;;;;;;;;;;4978111;28;20035;-80
2023/07/25 05:21:17;;;;;;;11.02;2.40;;;;;;;;;;4978694;28;20035;-78
2023/07/25 05:23:42;;;;;;;5.72;2.53;;;;;;;;;;4990479;28;20041;-80
2023/07/25 05:26:08;;;;;;;8.38;2.65;;;;;;;;;;4975225;28;20027;-80
2023/07/25 05:28:33;;;;;;;7.28;2.47;;;;;;;;;;4968955;28;20037;-80
2023/07/25 05:30:59;;;;;;;8.13;3.08;;;;;;;;;;4995003;28;20106;-80
2023/07/25 05:33:25;;;;;;;9.93;2.42;;;;;;;;;;4977918;28;20479;-81
2023/07/25 05:35:58;;;;;;;10.10;2.42;;;;;;;;;;4988809;28;20022;-78
2023/07/25 05:38:23;;;;;;;6.47;2.33;;;;;;;;;;4984496;28;20034;-79
2023/07/25 05:40:49;;;;;;;8.65;3.65;;;;;;;;;;4979989;28;20034;-80
2023/07/25 05:43:16;;;;;;;7.45;2.53;;;;;;;;;;4990310;28;20036;-81
2023/07/25 05:45:42;;;;;;;8.70;2.17;;;;;;;;;;4979591;28;20054;-78
2023/07/25 05:48:07;;;;;;;6.18;2.60;;;;;;;;;;4969186;28;20109;-80
2023/07/25 05:50:33;;;;;;;4.82;2.08;;;;;;;;;;4986248;28;20061;-79
2023/07/25 05:52:58;;;;;;;7.65;2.72;;;;;;;;;;4979026;28;20041;-80
2023/07/25 05:55:23;;;;;;;8.05;2.58;;;;;;;;;;4993265;28;20022;-80
2023/07/25 05:57:49;;;;;;;10.20;3.20;;;;;;;;;;4989620;28;20482;-80
2023/07/25 06:00:15;;;;;;;5.00;2.40;;;;;;;;;;4984173;28;20031;-79
2023/07/25 06:02:40;;;;;;;7.15;2.40;;;;;;;;;;4983668;28;20457;-78
2023/07/25 06:05:06;;;;;;;7.65;2.58;;;;;;;;;;4998832;28;20069;-80
2023/07/25 06:07:32;;;;;;;7.35;2.53;;;;;;;;;;5000482;28;20042;-78
2023/07/25 06:09:58;;;;;;;5.97;2.25;;;;;;;;;;5022080;28;20035;-77
2023/07/25 06:12:23;;;;;;;5.65;2.25;;;;;;;;;;5004547;28;20037;-78
2023/07/25 06:14:49;;;;;;;7.90;2.20;;;;;;;;;;5016536;28;20030;-77
2023/07/25 06:17:15;;;;;;;6.07;2.47;;;;;;;;;;5004337;28;20485;-78
2023/07/25 06:19:40;;;;;;;7.18;3.00;;;;;;;;;;4976613;28;20490;-79
2023/07/25 06:22:06;;;;;;;6.65;2.58;;;;;;;;;;4982011;28;20030;-78
2023/07/25 06:24:31;;;;;;;21.38;9.60;;;;;;;;;;4981413;28;20054;-77
2023/07/25 06:26:57;;;;;;;8.48;4.30;;;;;;;;;;4974196;28;20491;-76
2023/07/25 06:29:22;;;;;;;11.55;3.80;;;;;;;;;;4976550;28;20066;-77
2023/07/25 06:31:48;;;;;;;6.47;2.17;;;;;;;;;;4987261;28;20660;-77
2023/07/25 06:34:14;;;;;;;13.23;2.13;;;;;;;;;;4981820;28;20494;-76
2023/07/25 06:36:39;;;;;;;6.35;2.40;;;;;;;;;;4981061;28;20110;-76
2023/07/25 06:39:05;;;;;;;10.50;2.78;;;;;;;;;;4974152;28;20051;-78
2023/07/25 06:41:30;;;;;;;4.40;1.88;;;;;;;;;;4992176;28;20512;-78
2023/07/25 06:44:01;;;;;;;6.68;1.80;;;;;;;;;;4971400;28;20034;-77
2023/07/25 06:46:27;;;;;;;7.60;2.30;;;;;;;;;;4984304;28;20034;-80
2023/07/25 06:48:52;;;;;;;6.63;2.08;;;;;;;;;;4985244;28;20027;-78
2023/07/25 06:51:24;;;;;;;4.07;1.92;;;;;;;;;;4993692;28;20409;-77
2023/07/25 06:53:52;;;;;;;6.40;2.10;;;;;;;;;;4982368;28;20033;-79
2023/07/25 06:56:18;;;;;;;4.45;2.13;;;;;;;;;;4995283;28;20508;-78
2023/07/25 06:58:44;;;;;;;8.25;2.20;;;;;;;;;;4981953;28;20114;-78
2023/07/25 07:01:09;;;;;;;5.22;1.83;;;;;;;;;;4989116;28;20042;-78
2023/07/25 07:03:35;;;;;;;5.05;1.90;;;;;;;;;;4977552;28;20026;-78
2023/07/25 07:06:00;;;;;;;9.02;2.15;;;;;;;;;;4975156;28;20038;-79
2023/07/25 07:08:26;;;;;;;6.68;2.25;;;;;;;;;;4982757;28;20446;-78
2023/07/25 07:10:53;;;;;;;9.30;3.05;;;;;;;;;;4940316;28;20117;-78
2023/07/25 07:13:19;;;;;;;4.43;1.80;;;;;;;;;;4957928;28;20133;-79
2023/07/25 07:15:45;;;;;;;5.53;1.70;;;;;;;;;;4988563;28;20038;-78
2023/07/25 07:18:11;;;;;;;7.30;1.83;;;;;;;;;;4991733;28;20105;-78
2023/07/25 07:20:37;;;;;;;7.97;2.00;;;;;;;;;;4963859;28;20070;-77
2023/07/25 07:23:02;;;;;;;6.95;1.88;;;;;;;;;;4988992;28;20054;-78
2023/07/25 07:25:28;;;;;;;2.97;1.50;;;;;;;;;;4957606;28;20481;-79
2023/07/25 07:27:53;;;;;;;5.72;1.70;;;;;;;;;;4979987;28;20134;-78
2023/07/25 07:30:19;;;;;;;5.97;2.17;;;;;;;;;;4998420;28;20108;-77
2023/07/25 07:32:45;;;;;;;7.93;1.50;;;;;;;;;;4986663;28;20030;-79
2023/07/25 07:35:11;;;;;;;3.97;1.30;;;;;;;;;;4974986;28;20461;-79
2023/07/25 07:37:37;;;;;;;9.25;2.42;;;;;;;;;;5003996;28;20081;-79
2023/07/25 07:40:03;;;;;;;4.90;1.77;;;;;;;;;;4981346;28;20031;-79
2023/07/25 07:42:29;;;;;;;6.00;1.77;;;;;;;;;;4996833;28;20164;-78
2023/07/25 07:44:54;;;;;;;5.93;1.70;;;;;;;;;;4972829;28;20090;-78
2023/07/25 07:47:20;;;;;;;7.93;1.70;;;;;;;;;;4991011;28;20042;-78
2023/07/25 07:49:45;;;;;;;5.25;1.20;;;;;;;;;;4987218;28;20089;-79
2023/07/25 07:52:11;;;;;;;4.07;1.45;;;;;;;;;;4968345;28;20120;-79
2023/07/25 07:54:36;;;;;;;6.93;1.50;;;;;;;;;;4982984;28;20038;-79
2023/07/25 07:57:02;;;;;;;15.43;1.85;;;;;;;;;;4992075;28;20104;-78
2023/07/25 07:59:27;;;;;;;6.80;1.67;;;;;;;;;;4980586;28;20031;-78
2023/07/25 08:01:53;;;;;;;4.38;1.40;;;;;;;;;;4990175;28;20034;-78
2023/07/25 08:04:18;;;;;;;4.75;1.70;;;;;;;;;;4985953;28;20038;-78
2023/07/25 08:06:44;;;;;;;9.27;1.55;;;;;;;;;;4978706;28;20034;-79
2023/07/25 08:09:09;;;;;;;9.23;1.73;;;;;;;;;;4994820;28;20110;-78
2023/07/25 08:11:35;;;;;;;6.25;1.33;;;;;;;;;;4988006;28;20130;-76
2023/07/25 08:14:01;;;;;;;5.53;1.48;;;;;;;;;;4995508;28;20031;-78
2023/07/25 08:16:26;;;;;;;4.53;1.40;;;;;;;;;;4990724;28;20073;-77
2023/07/25 08:18:52;;;;;;;6.43;1.70;;;;;;;;;;4989923;28;20478;-76
2023/07/25 08:21:18;;;;;;;4.13;1.42;;;;;;;;;;4984863;28;20088;-77
2023/07/25 08:23:43;;;;;;;9.52;1.55;;;;;;;;;;4967070;28;20038;-78
2023/07/25 08:26:09;;;;;;;6.38;1.50;;;;;;;;;;4991232;28;20568;-77
2023/07/25 08:28:34;;;;;;;3.90;1.50;;;;;;;;;;4991710;28;20097;-77
2023/07/25 08:31:00;;;;;;;3.58;1.30;;;;;;;;;;4981525;28;20030;-78
2023/07/25 08:33:31;;;;;;;4.47;1.35;;;;;;;;;;4991167;28;20053;-80
2023/07/25 08:35:57;;;;;;;6.22;1.98;;;;;;;;;;4967017;28;20034;-79
2023/07/25 08:38:23;;;;;;;3.90;1.33;;;;;;;;;;4998063;28;20031;-79
2023/07/25 08:41:00;;;;;;;6.28;1.20;;;;;;;;;;4987371;28;20057;-80
2023/07/25 08:43:27;;;;;;;7.63;1.30;;;;;;;;;;5005296;28;20055;-80
2023/07/25 08:45:53;;;;;;;6.88;1.67;;;;;;;;;;4992118;28;20030;-80
2023/07/25 08:48:19;;;;;;;3.85;1.35;;;;;;;;;;5000479;28;20141;-80
2023/07/25 08:50:46;;;;;;;5.57;1.40;;;;;;;;;;4993615;28;20034;-78
2023/07/25 08:53:13;;;;;;;5.30;1.27;;;;;;;;;;4995898;28;20057;-77
2023/07/25 08:55:38;;;;;;;4.40;1.52;;;;;;;;;;4970667;28;20049;-77
2023/07/25 08:58:04;;;;;;;5.50;1.40;;;;;;;;;;4992613;28;20034;-79
2023/07/25 09:00:30;;;;;;;6.22;1.90;;;;;;;;;;4979452;28;20492;-79
2023/07/25 09:02:55;;;;;;;8.38;1.73;;;;;;;;;;4987825;28;20027;-79
2023/07/25 09:05:21;;;;;;;5.13;1.40;;;;;;;;;;4988933;28;20405;-77
2023/07/25 09:07:47;;;;;;;7.10;1.83;;;;;;;;;;4999193;28;20477;-78
2023/07/25 09:10:13;;;;;;;6.47;1.38;;;;;;;;;;4995244;28;20050;-77
2023/07/25 09:12:39;;;;;;;4.70;1.50;;;;;;;;;;4982899;28;20038;-78
2023/07/25 09:15:05;;;;;;;5.15;1.52;;;;;;;;;;4973911;28;20030;-77
2023/07/25 09:17:31;;;;;;;6.28;1.70;;;;;;;;;;4986518;28;20371;-79
2023/07/25 09:19:57;;;;;;;6.90;1.70;;;;;;;;;;4980125;28;20023;-76
2023/07/25 09:22:29;;;;;;;5.03;1.42;;;;;;;;;;4991758;28;20113;-76
2023/07/25 09:24:55;;;;;;;9.13;1.63;;;;;;;;;;4979160;28;20026;-79
2023/07/25 09:27:21;;;;;;;4.45;1.98;;;;;;;;;;4970540;28;20038;-78
2023/07/25 09:29:50;;;;;;;4.72;1.50;;;;;;;;;;4985980;28;20030;-77
2023/07/25 09:32:22;;;;;;;4.00;1.30;;;;;;;;;;4977349;28;20038;-79
2023/07/25 09:34:54;;;;;;;7.07;1.50;;;;;;;;;;4979010;28;20441;-79
2023/07/25 09:37:20;;;;;;;4.68;1.50;;;;;;;;;;4985880;28;20584;-79
2023/07/25 09:39:45;;;;;;;6.25;1.35;;;;;;;;;;4975807;28;20035;-79
2023/07/25 09:42:11;;;;;;;4.25;1.63;;;;;;;;;;4989376;28;20385;-80
2023/07/25 09:44:36;;;;;;;5.00;1.65;;;;;;;;;;4976283;28;20034;-80
2023/07/25 09:47:02;;;;;;;4.57;1.42;;;;;;;;;;4986332;28;20058;-79
2023/07/25 09:52:41;;;;;;;3.72;1.50;;;;;;;;;;4977110;28;20045;-79
2023/07/25 09:55:07;;;;;;;4.32;1.50;;;;;;;;;;4969086;28;20039;-80
2023/07/25 09:57:34;;;;;;;5.38;1.65;;;;;;;;;;4984598;28;20030;-80
2023/07/25 10:00:00;;;;;;;4.68;1.70;;;;;;;;;;4978262;28;20038;-80
2023/07/25 10:02:26;;;;;;;7.32;2.22;;;;;;;;;;4991108;28;20438;-79
2023/07/25 10:04:53;;;;;;;11.85;2.47;;;;;;;;;;4978958;28;20038;-80
2023/07/25 10:07:20;;;;;;;10.27;2.20;;;;;;;;;;4984298;28;20129;-79
2023/07/25 10:09:46;;;;;;;5.90;2.13;;;;;;;;;;4986309;28;20062;-80
2023/07/25 10:12:12;;;;;;;6.43;1.90;;;;;;;;;;4980409;28;20101;-80
2023/07/25 10:14:37;;;;;;;2.92;1.60;;;;;;;;;;4980793;28;20471;-79
2023/07/25 10:17:03;;;;;;;4.65;1.80;;;;;;;;;;4996446;28;20033;-80
2023/07/25 10:19:44;;;;;;;6.60;1.70;;;;;;;;;;4994180;28;20026;-81
2023/07/25 10:22:09;;;;;;;6.45;1.45;;;;;;;;;;4985022;28;20022;-80
2023/07/25 10:24:35;;;;;;;10.65;2.17;;;;;;;;;;4977755;28;20113;-81
2023/07/25 10:27:00;;;;;;;9.60;2.17;;;;;;;;;;4976271;28;20121;-81
2023/07/25 10:29:37;;;;;;;5.10;1.77;;;;;;;;;;4987864;28;20023;-80
2023/07/25 10:32:03;;;;;;;6.03;1.58;;;;;;;;;;4979214;28;20034;-80
2023/07/25 10:34:45;;;;;;;7.45;1.58;;;;;;;;;;4988217;28;20034;-79
2023/07/25 10:37:25;;;;;;;3.45;1.52;;;;;;;;;;4949874;28;20026;-79
2023/07/25 10:40:06;;;;;;;9.90;2.20;;;;;;;;;;4968736;28;20038;-79
2023/07/25 10:42:47;;;;;;;6.28;2.28;;;;;;;;;;4989607;28;20031;-79
2023/07/25 10:45:39;;;;;;;7.55;1.63;;;;;;;;;;4976783;28;20113;-80
2023/07/25 10:48:24;;;;;;;8.40;1.60;;;;;;;;;;4978350;28;20458;-79
2023/07/25 10:50:50;;;;;;;2.63;1.10;;;;;;;;;;4988760;28;20065;-79
2023/07/25 10:53:22;;;;;;;5.90;1.67;;;;;;;;;;4979759;28;20046;-79
2023/07/25 10:56:03;;;;;;;6.88;1.83;;;;;;;;;;4966478;28;20126;-78
2023/07/25 10:58:39;;;;;;;5.68;1.33;;;;;;;;;;4972845;28;20035;-78
2023/07/25 11:01:05;;;;;;;2.20;0.90;;;;;;;;;;4988544;28;20520;-79
2023/07/25 11:03:37;;;;;;;7.03;1.70;;;;;;;;;;4980266;28;20030;-79
2023/07/25 11:06:08;;;;;;;4.65;1.50;;;;;;;;;;5008863;23;20129;-77
2023/07/25 11:08:38;;;;;;;3.33;1.40;;;;;;;;;;5021280;28;20071;-77
2023/07/25 11:11:03;;;;;;;;;;;;;;;;;;5038109;28;20094;-77
2023/07/25 11:13:29;;;;;;;5.00;1.73;;;;;;;;;;5056456;28;20364;-77
2023/07/25 11:15:55;;;;;;;4.93;1.42;;;;;;;;;;5064970;28;20017;-76
2023/07/25 11:18:20;;;;;;;5.05;1.98;;;;;;;;;;5050591;28;20446;-77
2023/07/25 11:21:02;;;;;;;5.45;2.08;;;;;;;;;;5063894;28;20531;-76
2023/07/25 11:23:28;;;;;;;4.72;1.40;;;;;;;;;;5060136;28;20040;-78
2023/07/25 11:25:55;;;;;;;4.85;1.60;;;;;;;;;;5058249;28;20025;-76
2023/07/25 11:28:21;;;;;;;8.73;1.70;;;;;;;;;;5056610;28;20030;-76
2023/07/25 11:30:47;;;;;;;18.73;3.13;;;;;;;;;;5044198;28;20029;-75
2023/07/25 11:33:12;;;;;;;4.20;1.42;;;;;;;;;;5052000;28;20032;-76
2023/07/25 11:35:38;;;;;;;3.20;1.23;;;;;;;;;;5039918;28;20031;-77
2023/07/25 11:38:03;;;;;;;8.18;2.03;;;;;;;;;;5051745;28;20032;-77
2023/07/25 11:40:29;;;;;;;6.88;1.80;;;;;;;;;;5018464;28;20496;-77
2023/07/25 11:42:56;;;;;;;7.97;1.67;;;;;;;;;;5046638;28;20040;-77
2023/07/25 11:45:22;;;;;;;3.85;1.33;;;;;;;;;;5036728;28;20056;-76
2023/07/25 11:47:48;;;;;;;6.43;1.42;;;;;;;;;;5042518;28;20481;-77
2023/07/25 11:50:14;;;;;;;4.22;1.50;;;;;;;;;;5032286;28;20472;-78
2023/07/25 11:52:41;;;;;;;7.55;1.50;;;;;;;;;;5032003;28;20026;-77
2023/07/25 11:55:07;;;;;;;5.15;1.60;;;;;;;;;;5051015;28;20021;-76
2023/07/25 11:57:33;;;;;;;9.95;1.77;;;;;;;;;;5044889;28;20078;-76
2023/07/25 11:59:59;;;;;;;10.57;1.95;;;;;;;;;;5041685;28;20123;-79
2023/07/25 12:02:26;;;;;;;9.50;2.20;;;;;;;;;;5051304;28;20136;-77
2023/07/25 12:04:52;;;;;;;8.77;1.83;;;;;;;;;;5033267;28;20029;-77
2023/07/25 12:07:17;;;;;;;3.65;1.60;;;;;;;;;;5045213;28;20120;-77
2023/07/25 12:09:53;;;;;;;8.93;1.67;;;;;;;;;;5041268;28;20121;-77
2023/07/25 12:12:19;;;;;;;5.68;1.70;;;;;;;;;;5043982;28;20025;-77
2023/07/25 12:14:55;;;;;;;4.20;1.60;;;;;;;;;;5050912;28;20013;-78
2023/07/25 12:17:21;;;;;;;5.80;1.65;;;;;;;;;;5045541;28;20112;-77
2023/07/25 12:19:53;;;;;;;5.05;1.80;;;;;;;;;;5040838;28;20555;-77
2023/07/25 12:22:19;;;;;;;4.47;1.58;;;;;;;;;;5030304;28;20038;-78
2023/07/25 12:24:45;;;;;;;4.35;1.83;;;;;;;;;;5047508;28;20568;-77
2023/07/25 12:27:15;;;;;;;6.00;2.20;;;;;;;;;;5035477;28;20132;-76
2023/07/25 12:29:40;;;;;;;9.05;2.40;;;;;;;;;;5050339;28;20051;-76
2023/07/25 12:32:06;;;;;;;6.93;1.60;;;;;;;;;;5039126;28;20488;-77
2023/07/25 12:34:31;;;;;;;3.22;1.50;;;;;;;;;;5046160;28;20036;-77
2023/07/25 12:37:00;;;;;;;6.25;1.70;;;;;;;;;;5052680;28;20032;-77
2023/07/25 12:39:26;;;;;;;5.18;1.80;;;;;;;;;;5048274;28;20112;-78
2023/07/25 12:41:52;;;;;;;5.22;1.90;;;;;;;;;;5043561;28;20021;-77
2023/07/25 12:44:17;;;;;;;4.90;2.00;;;;;;;;;;5040914;28;20021;-77
2023/07/25 12:46:55;;;;;;;6.60;2.47;;;;;;;;;;5049664;28;20112;-77
2023/07/25 12:49:28;;;;;;;6.50;1.92;;;;;;;;;;5023788;28;20040;-78
2023/07/25 12:51:59;;;;;;;3.53;1.42;;;;;;;;;;5052706;28;20037;-78
2023/07/25 12:54:24;;;;;;;4.40;1.40;;;;;;;;;;5038602;28;20053;-77
2023/07/25 12:56:50;;;;;;;5.63;1.80;;;;;;;;;;5052658;28;20065;-77
2023/07/25 12:59:15;;;;;;;3.80;1.63;;;;;;;;;;5048500;28;20029;-76
2023/07/25 13:01:41;;;;;;;4.60;1.80;;;;;;;;;;5041416;28;20049;-77
2023/07/25 13:04:09;;;;;;;7.35;2.08;;;;;;;;;;5036481;28;20040;-76
2023/07/25 13:06:35;;;;;;;3.08;1.40;;;;;;;;;;5045087;28;20036;-77
2023/07/25 13:09:03;;;;;;;4.88;2.38;;;;;;;;;;5038027;28;20167;-77
2023/07/25 13:11:28;;;;;;;6.35;2.38;;;;;;;;;;5054277;28;20495;-75
2023/07/25 13:13:54;;;;;;;5.07;1.90;;;;;;;;;;5052993;28;20477;-76
2023/07/25 13:16:20;;;;;;;4.93;2.35;;;;;;;;;;5042827;28;20017;-77
2023/07/25 13:18:45;;;;;;;4.50;1.60;;;;;;;;;;5051412;28;20100;-75
2023/07/25 13:21:11;;;;;;;5.18;1.60;;;;;;;;;;5047400;28;20034;-76
2023/07/25 13:23:36;;;;;;;6.10;1.50;;;;;;;;;;5035084;28;20033;-76
2023/07/25 13:26:02;;;;;;;5.03;1.80;;;;;;;;;;5033814;28;20030;-76
2023/07/25 13:28:30;;;;;;;6.88;1.70;;;;;;;;;;5049248;28;20112;-75
2023/07/25 13:30:56;;;;;;;6.80;1.95;;;;;;;;;;5037219;28;20025;-77
2023/07/25 13:33:21;;;;;;;4.43;1.67;;;;;;;;;;5046803;28;20030;-76
2023/07/25 13:35:47;;;;;;;4.40;1.85;;;;;;;;;;5044244;28;20116;-78
2023/07/25 13:38:12;;;;;;;5.30;1.73;;;;;;;;;;5054902;28;20029;-75
2023/07/25 13:40:38;;;;;;;4.25;1.50;;;;;;;;;;5038047;28;20029;-77
2023/07/25 13:43:03;;;;;;;6.03;1.65;;;;;;;;;;5051045;28;20029;-77
2023/07/25 13:45:29;;;;;;;6.30;1.90;;;;;;;;;;5042066;28;20045;-77
2023/07/25 13:47:57;;;;;;;7.22;1.88;;;;;;;;;;5033618;28;20061;-76
2023/07/25 13:50:23;;;;;;;3.97;1.83;;;;;;;;;;5051374;28;20413;-75
2023/07/25 13:52:51;;;;;;;4.10;1.52;;;;;;;;;;5045616;28;20396;-77
2023/07/25 13:55:17;;;;;;;5.57;1.80;;;;;;;;;;5059174;28;20029;-76
2023/07/25 13:57:42;;;;;;;8.93;1.90;;;;;;;;;;5056849;28;20093;-77
2023/07/25 14:00:11;;;;;;;7.47;1.50;;;;;;;;;;5068217;28;20035;-75
2023/07/25 14:02:37;;;;;;;5.20;1.55;;;;;;;;;;5050315;28;20124;-76
2023/07/25 14:05:04;;;;;;;6.10;2.08;;;;;;;;;;5064940;28;20028;-74
2023/07/25 14:07:29;;;;;;;3.22;1.65;;;;;;;;;;5047078;28;20037;-75
2023/07/25 14:09:55;;;;;;;5.35;1.65;;;;;;;;;;5027225;28;20099;-76
2023/07/25 14:12:20;;;;;;;4.72;1.55;;;;;;;;;;5038602;28;20456;-77
2023/07/25 14:14:46;;;;;;;6.88;1.50;;;;;;;;;;5049863;28;20065;-79
2023/07/25 14:17:11;;;;;;;4.68;1.63;;;;;;;;;;5047395;28;20033;-77
2023/07/25 14:19:39;;;;;;;5.60;1.45;;;;;;;;;;5045997;28;20041;-76
2023/07/25 14:22:05;;;;;;;5.93;1.90;;;;;;;;;;5052492;28;20047;-76
2023/07/25 14:24:31;;;;;;;5.28;1.80;;;;;;;;;;5036617;28;20516;-76
2023/07/25 14:29:57;;;;;;;7.57;2.10;;;;;;;;;;4983229;28;20041;-76
2023/07/25 14:32:23;;;;;;;5.35;1.90;;;;;;;;;;5042354;28;20431;-79
2023/07/25 14:34:49;;;;;;;4.28;1.67;;;;;;;;;;5049968;28;20025;-82
2023/07/25 14:37:18;;;;;;;2.97;1.60;;;;;;;;;;5036719;28;20113;-83
2023/07/25 14:39:43;;;;;;;;;;;;;;;;;;5043461;28;20036;-83
2023/07/25 14:42:09;;;;;;;7.68;1.98;;;;;;;;;;5044956;28;19995;-84
2023/07/25 14:44:34;;;;;;;7.03;1.90;;;;;;;;;;5035077;28;20040;-77